createdAt,value
2023-01-29T00:00:18.966Z,27.63
2023-01-29T00:00:53.848Z,30.77
2023-01-29T00:01:26.083Z,29.00
2023-01-29T00:01:58.349Z,27.02
2023-01-29T00:02:33.342Z,30.42
2023-01-29T00:03:05.724Z,29.90
2023-01-29T00:03:37.885Z,28.33
2023-01-29T00:04:12.642Z,27.95
2023-01-29T00:04:44.843Z,23.75
2023-01-29T00:05:27.559Z,28.75
2023-01-29T00:06:03.758Z,29.70
2023-01-29T00:06:36.138Z,30.40
2023-01-29T00:07:11.412Z,27.48
2023-01-29T00:07:43.845Z,34.40
2023-01-29T00:08:16.014Z,29.38
2023-01-29T00:08:50.902Z,28.67
2023-01-29T00:09:23.039Z,31.83
2023-01-29T00:09:57.763Z,36.75
2023-01-29T00:10:32.450Z,33.45
2023-01-29T00:11:06.716Z,29.40
2023-01-29T00:11:38.956Z,30.92
2023-01-29T00:12:13.984Z,26.15
2023-01-29T00:12:46.076Z,35.08
2023-01-29T00:13:18.306Z,27.92
2023-01-29T00:13:53.006Z,31.15
2023-01-29T00:14:26.486Z,28.40
2023-01-29T00:15:01.288Z,28.48
2023-01-29T00:15:33.443Z,30.33
2023-01-29T00:16:06.353Z,30.13
2023-01-29T00:16:41.086Z,32.10
2023-01-29T00:17:13.410Z,28.10
2023-01-29T00:17:45.647Z,32.67
2023-01-29T00:18:20.320Z,21.17
2023-01-29T00:18:52.451Z,35.67
2023-01-29T00:19:24.537Z,31.40
2023-01-29T00:19:59.212Z,30.42
2023-01-29T00:20:31.660Z,31.33
2023-01-29T00:21:03.772Z,26.42
2023-01-29T00:21:38.474Z,29.02
2023-01-29T00:22:10.804Z,27.27
2023-01-29T00:22:43.273Z,33.38
2023-01-29T00:23:15.718Z,29.48
2023-01-29T00:23:50.952Z,24.70
2023-01-29T00:24:23.339Z,31.42
2023-01-29T00:24:58.378Z,29.83
2023-01-29T00:25:34.280Z,32.40
2023-01-29T00:26:06.429Z,27.75
2023-01-29T00:26:39.375Z,32.10
2023-01-29T00:27:14.121Z,30.98
2023-01-29T00:27:47.352Z,33.78
2023-01-29T00:28:19.556Z,26.88
2023-01-29T00:28:54.250Z,30.38
2023-01-29T00:29:26.566Z,34.45
2023-01-29T00:30:09.373Z,27.17
2023-01-29T00:30:44.353Z,28.63
2023-01-29T00:31:18.634Z,32.22
2023-01-29T00:31:50.896Z,29.95
2023-01-29T00:32:25.722Z,30.08
2023-01-29T00:32:58.166Z,29.95
2023-01-29T00:33:31.566Z,28.55
2023-01-29T00:34:06.377Z,28.20
2023-01-29T00:34:38.476Z,28.52
2023-01-29T00:35:11.168Z,29.30
2023-01-29T00:35:45.830Z,38.22
2023-01-29T00:36:20.837Z,30.17
2023-01-29T00:37:05.060Z,32.38
2023-01-29T00:37:37.379Z,28.00
2023-01-29T00:38:09.552Z,31.27
2023-01-29T00:38:44.353Z,29.85
2023-01-29T00:39:16.455Z,28.33
2023-01-29T00:39:48.567Z,34.78
2023-01-29T00:40:26.665Z,27.33
2023-01-29T00:41:13.852Z,29.75
2023-01-29T00:42:00.984Z,31.08
2023-01-29T00:42:48.204Z,32.75
2023-01-29T00:43:37.845Z,31.50
2023-01-29T00:44:25.119Z,28.58
2023-01-29T00:45:00.153Z,30.92
2023-01-29T00:45:36.784Z,35.22
2023-01-29T00:46:09.067Z,30.15
2023-01-29T00:46:41.371Z,31.83
2023-01-29T00:47:28.356Z,28.13
2023-01-29T00:48:03.401Z,34.15
2023-01-29T00:48:35.983Z,28.63
2023-01-29T00:49:09.252Z,28.77
2023-01-29T00:49:43.912Z,27.67
2023-01-29T00:50:17.078Z,22.83
2023-01-29T00:50:49.475Z,31.17
2023-01-29T00:51:24.157Z,27.63
2023-01-29T00:52:11.153Z,30.48
2023-01-29T00:52:46.039Z,32.78
2023-01-29T00:53:18.154Z,29.25
2023-01-29T00:53:50.320Z,33.05
2023-01-29T00:54:25.079Z,31.92
2023-01-29T00:54:59.256Z,28.40
2023-01-29T00:55:36.645Z,29.40
2023-01-29T00:56:09.960Z,30.15
2023-01-29T00:56:42.082Z,31.05
2023-01-29T00:57:16.773Z,36.45
2023-01-29T00:57:49.416Z,27.20
2023-01-29T00:58:34.272Z,28.48
2023-01-29T00:59:06.511Z,34.28
2023-01-29T00:59:38.691Z,30.95
2023-01-29T01:00:16.486Z,26.73
2023-01-29T01:00:49.305Z,25.83
2023-01-29T01:01:38.647Z,27.52
2023-01-29T01:02:25.911Z,21.98
2023-01-29T01:03:06.706Z,28.83
2023-01-29T01:03:42.210Z,26.77
2023-01-29T01:04:14.759Z,31.42
2023-01-29T01:04:47.115Z,30.30
2023-01-29T01:05:22.270Z,27.33
2023-01-29T01:06:03.911Z,38.38
2023-01-29T04:10:30.338Z,105.85
2023-01-29T04:11:43.125Z,60.17
2023-01-29T04:12:21.734Z,52.20
2023-01-29T04:12:58.964Z,34.38
2023-01-29T04:13:33.847Z,54.80
2023-01-29T04:14:10.185Z,36.80
2023-01-29T04:14:42.508Z,36.13
2023-01-29T04:15:17.255Z,43.35
2023-01-29T04:15:58.871Z,46.80
2023-01-29T04:16:56.021Z,34.92
2023-01-29T04:17:42.847Z,28.95
2023-01-29T04:18:20.643Z,30.95
2023-01-29T04:19:13.282Z,32.55
2023-01-29T04:19:50.749Z,34.08
2023-01-29T04:20:23.913Z,38.60
2023-01-29T04:20:56.657Z,36.15
2023-01-29T04:21:32.996Z,30.95
2023-01-29T04:22:10.076Z,35.17
2023-01-29T04:22:48.882Z,36.78
2023-01-29T04:23:23.764Z,34.20
2023-01-29T04:23:56.122Z,34.97
2023-01-29T04:24:31.587Z,36.33
2023-01-29T04:25:08.679Z,37.40
2023-01-29T04:25:48.126Z,34.97
2023-01-29T04:26:48.115Z,36.30
2023-01-29T04:27:30.201Z,36.65
2023-01-29T04:28:10.764Z,31.23
2023-01-29T04:28:58.858Z,27.00
2023-01-29T04:29:45.947Z,26.48
2023-01-29T04:30:33.585Z,35.63
2023-01-29T04:31:11.842Z,39.22
2023-01-29T04:31:54.158Z,33.70
2023-01-29T04:32:34.822Z,42.78
2023-01-29T04:33:19.101Z,32.45
2023-01-29T04:33:59.773Z,30.48
2023-01-29T04:34:39.864Z,31.17
2023-01-29T04:35:25.716Z,33.10
2023-01-29T04:36:17.760Z,38.28
2023-01-29T04:37:02.717Z,32.72
2023-01-29T04:37:40.344Z,26.30
2023-01-29T04:38:25.991Z,40.70
2023-01-29T04:39:07.970Z,35.17
2023-01-29T04:39:49.339Z,33.90
2023-01-29T04:40:27.754Z,36.40
2023-01-29T04:41:08.991Z,35.45
2023-01-29T04:41:50.273Z,29.02
2023-01-29T04:42:33.283Z,29.08
2023-01-29T04:43:10.101Z,38.30
2023-01-29T04:43:48.828Z,25.90
2023-01-29T04:44:28.667Z,26.52
2023-01-29T04:45:07.454Z,44.08
2023-01-29T04:45:52.175Z,33.20
2023-01-29T04:46:30.199Z,41.33
2023-01-29T04:47:12.083Z,40.45
2023-01-29T04:47:52.487Z,32.08
2023-01-29T04:49:13.648Z,34.67
2023-01-29T04:49:49.493Z,34.95
2023-01-29T04:50:28.378Z,35.47
2023-01-29T04:51:11.753Z,30.80
2023-01-29T04:51:49.881Z,42.50
2023-01-29T04:52:29.522Z,29.98
2023-01-29T04:53:12.150Z,35.72
2023-01-29T04:53:50.478Z,36.92
2023-01-29T04:54:32.738Z,35.58
2023-01-29T04:55:12.244Z,35.28
2023-01-29T04:55:47.709Z,40.35
2023-01-29T04:56:30.330Z,45.55
2023-01-29T04:57:12.487Z,37.78
2023-01-29T04:57:53.525Z,43.05
2023-01-29T04:58:31.556Z,36.70
2023-01-29T04:59:10.473Z,44.97
2023-01-29T04:59:48.424Z,30.63
2023-01-29T05:00:28.849Z,33.03
2023-01-29T05:01:39.097Z,48.25
2023-01-29T05:02:15.495Z,44.20
2023-01-29T05:02:49.101Z,50.45
2023-01-29T05:03:26.032Z,55.58
2023-01-29T05:04:03.656Z,34.92
2023-01-29T05:04:38.501Z,40.65
2023-01-29T05:05:13.917Z,28.95
2023-01-29T05:05:51.279Z,28.50
2023-01-29T05:06:25.607Z,34.90
2023-01-29T05:06:58.208Z,33.85
2023-01-29T05:07:34.063Z,32.40
2023-01-29T05:08:07.326Z,34.13
2023-01-29T05:08:41.385Z,42.05
2023-01-29T05:09:18.560Z,31.35
2023-01-29T05:09:51.771Z,37.70
2023-01-29T05:10:25.533Z,31.02
2023-01-29T05:11:01.931Z,33.60
2023-01-29T05:11:37.477Z,39.63
2023-01-29T05:12:11.849Z,42.80
2023-01-29T05:12:51.207Z,42.10
2023-01-29T05:13:25.839Z,47.10
2023-01-29T05:13:59.028Z,48.88
2023-01-29T05:14:37.492Z,36.25
2023-01-29T05:15:14.497Z,38.30
2023-01-29T05:15:50.732Z,47.65
2023-01-29T05:16:29.315Z,51.33
2023-01-29T05:17:05.875Z,39.45
2023-01-29T05:17:38.499Z,31.67
2023-01-29T05:18:13.441Z,39.63
2023-01-29T05:18:46.165Z,49.38
2023-01-29T05:19:18.418Z,41.22
2023-01-29T05:19:53.226Z,41.13
2023-01-29T05:20:25.407Z,39.67
2023-01-29T05:21:01.665Z,35.33
2023-01-29T05:21:36.408Z,34.72
2023-01-29T05:22:11.419Z,31.75
2023-01-29T05:22:45.842Z,43.72
2023-01-29T05:23:21.394Z,33.85
2023-01-29T05:24:12.637Z,45.17
2023-01-29T05:24:44.900Z,46.63
2023-01-29T05:25:25.977Z,34.67
2023-01-29T05:25:58.121Z,46.08
2023-01-29T05:26:45.385Z,31.05
2023-01-29T05:27:37.747Z,35.15
2023-01-29T05:28:16.454Z,37.33
2023-01-29T05:28:48.612Z,38.17
2023-01-29T05:29:23.719Z,52.83
2023-01-29T05:29:56.694Z,48.10
2023-01-29T05:30:28.808Z,47.58
2023-01-29T05:31:03.768Z,49.05
2023-01-29T05:31:35.960Z,46.25
2023-01-29T05:32:09.288Z,42.15
2023-01-29T05:32:41.372Z,39.53
2023-01-29T05:33:18.702Z,44.72
2023-01-29T05:33:50.851Z,40.90
2023-01-29T05:34:23.940Z,35.85
2023-01-29T05:34:58.704Z,42.42
2023-01-29T05:35:31.624Z,37.22
2023-01-29T05:36:07.081Z,39.28
2023-01-29T05:36:39.215Z,33.53
2023-01-29T05:37:11.684Z,34.28
2023-01-29T05:37:46.338Z,41.50
2023-01-29T05:38:19.732Z,42.35
2023-01-29T05:38:51.847Z,42.25
2023-01-29T05:39:26.928Z,48.13
2023-01-29T05:39:59.098Z,43.85
2023-01-29T05:40:31.250Z,44.05
2023-01-29T05:41:05.975Z,40.53
2023-01-29T05:41:38.169Z,46.08
2023-01-29T05:42:10.305Z,35.00
2023-01-29T05:42:47.644Z,40.50
2023-01-29T05:43:21.807Z,54.10
2023-01-29T05:43:54.024Z,51.97
2023-01-29T05:44:28.961Z,41.15
2023-01-29T05:45:01.097Z,42.95
2023-01-29T05:45:33.438Z,31.75
2023-01-29T05:46:08.359Z,44.13
2023-01-29T05:46:40.560Z,54.90
2023-01-29T05:47:12.695Z,43.65
2023-01-29T05:47:48.038Z,37.85
2023-01-29T05:48:20.547Z,34.80
2023-01-29T05:48:52.865Z,39.67
2023-01-29T05:49:27.632Z,41.58
2023-01-29T05:49:59.814Z,47.70
2023-01-29T05:50:35.160Z,41.03
2023-01-29T05:51:07.295Z,33.13
2023-01-29T05:51:39.617Z,42.00
2023-01-29T05:52:14.310Z,39.88
2023-01-29T05:52:46.460Z,53.50
2023-01-29T05:53:18.708Z,35.30
2023-01-29T05:53:53.436Z,47.95
2023-01-29T05:54:25.547Z,55.00
2023-01-29T05:55:00.247Z,44.25
2023-01-29T05:55:32.409Z,39.78
2023-01-29T05:56:05.554Z,47.55
2023-01-29T05:56:40.340Z,48.58
2023-01-29T05:57:12.447Z,49.47
2023-01-29T05:57:47.143Z,52.28
2023-01-29T05:58:22.475Z,36.97
2023-01-29T05:58:55.079Z,47.35
2023-01-29T05:59:27.276Z,36.60
2023-01-29T06:00:02.173Z,46.70
2023-01-29T06:00:44.307Z,43.88
2023-01-29T06:01:18.932Z,41.67
2023-01-29T06:01:53.804Z,47.88
2023-01-29T06:02:25.969Z,33.10
2023-01-29T06:03:01.888Z,35.38
2023-01-29T06:03:34.038Z,45.80
2023-01-29T06:04:06.198Z,48.95
2023-01-29T06:04:40.960Z,41.88
2023-01-29T06:05:13.106Z,35.15
2023-01-29T06:05:45.262Z,42.83
2023-01-29T06:06:20.159Z,52.28
2023-01-29T06:06:52.265Z,31.30
2023-01-29T06:07:24.410Z,37.38
2023-01-29T06:07:59.117Z,39.65
2023-01-29T06:08:31.225Z,34.03
2023-01-29T06:09:06.374Z,55.17
2023-01-29T06:09:40.393Z,52.72
2023-01-29T06:10:12.976Z,41.35
2023-01-29T06:10:47.673Z,45.05
2023-01-29T06:11:20.711Z,42.22
2023-01-29T06:11:52.888Z,46.83
2023-01-29T06:12:29.028Z,44.92
2023-01-29T06:13:04.114Z,45.10
2023-01-29T06:13:36.251Z,40.58
2023-01-29T06:14:11.080Z,40.53
2023-01-29T06:14:43.211Z,55.72
2023-01-29T06:15:15.714Z,36.22
2023-01-29T06:15:47.888Z,50.47
2023-01-29T06:16:22.717Z,58.05
2023-01-29T06:16:54.813Z,45.72
2023-01-29T06:17:26.966Z,35.38
2023-01-29T06:18:01.641Z,44.88
2023-01-29T06:18:33.775Z,36.35
2023-01-29T06:19:05.923Z,69.68
2023-01-29T06:19:40.619Z,53.63
2023-01-29T06:20:13.333Z,38.00
2023-01-29T06:20:45.555Z,36.70
2023-01-29T06:21:20.321Z,51.92
2023-01-29T06:21:52.412Z,46.55
2023-01-29T06:22:27.216Z,36.90
2023-01-29T06:22:59.759Z,33.58
2023-01-29T06:23:32.817Z,81.05
2023-01-29T06:24:08.324Z,49.17
2023-01-29T06:24:40.404Z,41.95
2023-01-29T06:25:12.746Z,40.58
2023-01-29T06:25:47.481Z,75.90
2023-01-29T06:26:19.672Z,43.97
2023-01-29T06:26:52.067Z,50.22
2023-01-29T06:27:26.748Z,37.85
2023-01-29T06:27:59.614Z,71.65
2023-01-29T06:28:34.936Z,40.33
2023-01-29T06:29:09.995Z,36.33
2023-01-29T06:29:42.395Z,36.53
2023-01-29T06:30:15.883Z,41.58
2023-01-29T06:30:48.441Z,31.38
2023-01-29T06:31:37.351Z,37.63
2023-01-29T06:32:10.303Z,40.53
2023-01-29T06:32:45.022Z,42.33
2023-01-29T06:33:17.127Z,40.78
2023-01-29T06:33:49.223Z,34.33
2023-01-29T06:34:23.907Z,46.15
2023-01-29T06:34:56.059Z,45.70
2023-01-29T06:35:28.461Z,46.15
2023-01-29T06:36:04.803Z,68.75
2023-01-29T06:36:37.036Z,50.63
2023-01-29T06:37:09.178Z,56.42
2023-01-29T06:37:43.965Z,44.40
2023-01-29T06:38:16.076Z,41.88
2023-01-29T06:38:48.337Z,43.80
2023-01-29T06:39:23.071Z,46.78
2023-01-29T06:39:55.184Z,53.95
2023-01-29T06:40:29.942Z,35.88
2023-01-29T06:41:09.371Z,54.67
2023-01-29T06:41:41.517Z,46.58
2023-01-29T06:42:16.239Z,48.38
2023-01-29T06:42:48.360Z,36.13
2023-01-29T06:43:20.751Z,48.33
2023-01-29T06:43:58.120Z,46.97
2023-01-29T06:44:30.292Z,41.40
2023-01-29T06:45:02.422Z,45.67
2023-01-29T06:45:37.167Z,54.83
2023-01-29T06:46:09.298Z,71.28
2023-01-29T06:46:44.211Z,85.35
2023-01-29T06:47:16.345Z,48.30
2023-01-29T06:47:48.479Z,72.60
2023-01-29T06:48:23.771Z,70.25
2023-01-29T06:48:58.267Z,67.93
2023-01-29T06:49:30.364Z,76.05
2023-01-29T06:50:05.086Z,54.17
2023-01-29T06:50:37.215Z,74.35
2023-01-29T06:51:10.936Z,66.20
2023-01-29T06:51:45.747Z,77.50
2023-01-29T06:52:17.877Z,66.93
2023-01-29T06:52:50.046Z,55.78
2023-01-29T06:53:25.353Z,54.25
2023-01-29T06:53:57.776Z,54.25
2023-01-29T06:54:30.461Z,39.95
2023-01-29T06:55:05.384Z,55.95
2023-01-29T06:55:37.623Z,55.55
2023-01-29T06:56:10.037Z,46.90
2023-01-29T06:56:44.875Z,51.15
2023-01-29T06:57:17.481Z,54.22
2023-01-29T06:57:49.804Z,51.15
2023-01-29T06:58:24.771Z,50.45
2023-01-29T06:58:59.877Z,50.10
2023-01-29T06:59:32.302Z,38.55
2023-01-29T07:00:09.987Z,45.08
2023-01-29T07:00:42.201Z,44.83
2023-01-29T07:01:34.286Z,41.35
2023-01-29T07:02:10.472Z,57.30
2023-01-29T07:02:42.874Z,49.78
2023-01-29T07:03:15.290Z,41.90
2023-01-29T07:03:52.415Z,38.08
2023-01-29T07:04:24.516Z,43.30
2023-01-29T07:04:56.723Z,59.60
2023-01-29T07:05:32.182Z,45.40
2023-01-29T07:06:05.394Z,45.60
2023-01-29T07:06:37.704Z,53.20
2023-01-29T07:07:15.460Z,49.38
2023-01-29T07:07:47.688Z,44.65
2023-01-29T07:08:22.876Z,41.00
2023-01-29T07:08:55.406Z,48.25
2023-01-29T07:09:27.755Z,42.88
2023-01-29T07:10:02.768Z,36.67
2023-01-29T07:10:34.923Z,50.15
2023-01-29T07:11:08.059Z,52.38
2023-01-29T07:11:45.621Z,49.20
2023-01-29T07:12:17.708Z,48.53
2023-01-29T07:12:50.011Z,56.83
2023-01-29T07:13:24.896Z,56.35
2023-01-29T07:13:59.667Z,49.40
2023-01-29T07:14:31.771Z,47.78
2023-01-29T07:15:07.457Z,45.70
2023-01-29T07:15:39.788Z,50.65
2023-01-29T07:16:14.555Z,50.67
2023-01-29T07:16:46.768Z,41.85
2023-01-29T07:17:18.837Z,41.53
2023-01-29T07:18:00.801Z,50.47
2023-01-29T07:18:33.225Z,51.92
2023-01-29T07:19:05.397Z,40.47
2023-01-29T07:19:40.208Z,40.10
2023-01-29T07:20:12.530Z,42.70
2023-01-29T07:20:44.706Z,51.80
2023-01-29T07:21:19.575Z,45.85
2023-01-29T07:21:51.821Z,51.47
2023-01-29T07:22:23.951Z,47.15
2023-01-29T07:23:00.031Z,49.45
2023-01-29T07:23:32.333Z,44.15
2023-01-29T07:24:07.940Z,50.30
2023-01-29T07:24:40.290Z,44.83
2023-01-29T07:25:12.544Z,46.70
2023-01-29T07:25:49.869Z,36.45
2023-01-29T07:26:22.205Z,53.60
2023-01-29T07:26:54.450Z,40.25
2023-01-29T07:27:30.346Z,45.38
2023-01-29T07:28:02.750Z,38.03
2023-01-29T07:28:38.157Z,64.85
2023-01-29T07:29:15.603Z,39.85
2023-01-29T07:29:47.811Z,51.72
2023-01-29T07:30:20.252Z,51.28
2023-01-29T07:30:59.102Z,42.42
2023-01-29T07:31:31.515Z,44.92
2023-01-29T07:32:03.925Z,66.43
2023-01-29T07:32:38.891Z,61.22
2023-01-29T07:33:11.481Z,64.45
2023-01-29T07:33:46.980Z,72.50
2023-01-29T07:34:19.267Z,46.03
2023-01-29T07:34:51.511Z,51.92
2023-01-29T07:35:26.342Z,47.20
2023-01-29T07:35:58.767Z,53.75
2023-01-29T07:36:31.245Z,53.30
2023-01-29T07:37:06.358Z,52.22
2023-01-29T07:37:38.459Z,42.70
2023-01-29T07:38:11.619Z,55.75
2023-01-29T07:38:46.575Z,53.95
2023-01-29T07:39:18.709Z,49.78
2023-01-29T07:39:50.894Z,48.53
2023-01-29T07:40:23.013Z,49.78
2023-01-29T07:40:57.926Z,45.78
2023-01-29T07:41:30.106Z,50.08
2023-01-29T07:42:05.302Z,66.30
2023-01-29T07:42:42.338Z,46.00
2023-01-29T07:43:14.985Z,48.97
2023-01-29T07:43:47.322Z,45.95
2023-01-29T07:44:24.619Z,36.85
2023-01-29T07:44:56.926Z,37.65
2023-01-29T07:45:29.617Z,42.50
2023-01-29T07:46:05.866Z,48.83
2023-01-29T07:46:38.302Z,41.20
2023-01-29T07:47:10.467Z,46.40
2023-01-29T07:47:45.211Z,78.05
2023-01-29T07:48:17.335Z,37.78
2023-01-29T07:48:49.515Z,37.75
2023-01-29T07:49:24.257Z,61.72
2023-01-29T07:49:56.356Z,39.38
2023-01-29T07:50:28.615Z,37.38
2023-01-29T07:51:03.510Z,51.47
2023-01-29T07:51:35.671Z,39.03
2023-01-29T07:52:07.832Z,47.97
2023-01-29T07:52:42.518Z,43.17
2023-01-29T07:53:15.619Z,39.92
2023-01-29T07:53:47.947Z,47.35
2023-01-29T07:54:22.835Z,51.50
2023-01-29T07:54:54.966Z,55.72
2023-01-29T07:55:27.607Z,52.25
2023-01-29T07:56:02.310Z,66.22
2023-01-29T07:56:34.475Z,53.38
2023-01-29T07:57:06.727Z,42.95
2023-01-29T07:57:41.423Z,60.42
2023-01-29T07:58:13.578Z,50.67
2023-01-29T07:58:45.691Z,50.08
2023-01-29T07:59:20.600Z,48.15
2023-01-29T07:59:55.357Z,43.92
2023-01-29T08:00:30.619Z,41.40
2023-01-29T08:01:06.656Z,47.50
2023-01-29T08:01:41.396Z,60.45
2023-01-29T08:02:13.846Z,43.65
2023-01-29T08:02:45.949Z,47.17
2023-01-29T08:03:22.835Z,49.95
2023-01-29T08:03:54.936Z,48.97
2023-01-29T08:04:27.130Z,58.30
2023-01-29T08:05:02.003Z,40.03
2023-01-29T08:05:34.584Z,64.90
2023-01-29T08:06:07.309Z,60.55
2023-01-29T08:06:42.294Z,67.55
2023-01-29T08:07:14.564Z,53.83
2023-01-29T08:07:51.525Z,64.38
2023-01-29T08:08:35.923Z,62.03
2023-01-29T08:09:08.965Z,56.67
2023-01-29T08:09:41.116Z,53.08
2023-01-29T08:10:16.126Z,57.75
2023-01-29T08:10:48.486Z,57.72
2023-01-29T08:11:20.614Z,57.15
2023-01-29T08:11:55.370Z,64.65
2023-01-29T08:12:27.571Z,59.40
2023-01-29T08:13:03.803Z,68.72
2023-01-29T08:13:36.350Z,45.35
2023-01-29T08:14:09.454Z,35.72
2023-01-29T08:14:45.870Z,45.08
2023-01-29T08:15:20.691Z,57.45
2023-01-29T08:15:52.824Z,60.50
2023-01-29T08:16:27.794Z,66.70
2023-01-29T08:17:00.052Z,56.75
2023-01-29T08:17:32.232Z,60.05
2023-01-29T08:18:07.597Z,64.20
2023-01-29T08:18:42.516Z,67.93
2023-01-29T08:19:14.858Z,57.13
2023-01-29T08:19:49.634Z,69.30
2023-01-29T08:20:22.613Z,67.35
2023-01-29T08:21:02.566Z,71.90
2023-01-29T08:21:34.691Z,60.78
2023-01-29T08:22:07.186Z,72.97
2023-01-29T08:22:39.290Z,54.28
2023-01-29T08:23:16.693Z,58.35
2023-01-29T08:23:48.841Z,70.90
2023-01-29T08:24:28.221Z,69.43
2023-01-29T08:25:09.278Z,66.35
2023-01-29T08:25:44.331Z,46.85
2023-01-29T08:26:16.549Z,94.07
2023-01-29T08:26:48.710Z,57.38
2023-01-29T08:27:23.553Z,61.17
2023-01-29T08:27:56.955Z,55.22
2023-01-29T08:28:29.197Z,50.88
2023-01-29T08:29:04.085Z,53.60
2023-01-29T08:29:36.326Z,61.72
2023-01-29T08:30:11.065Z,90.00
2023-01-29T08:30:48.498Z,61.67
2023-01-29T08:31:20.836Z,71.40
2023-01-29T08:31:53.163Z,86.18
2023-01-29T08:32:28.090Z,60.45
2023-01-29T08:33:00.921Z,107.95
2023-01-29T08:33:38.949Z,83.00
2023-01-29T08:34:14.072Z,43.03
2023-01-29T08:34:46.263Z,52.15
2023-01-29T08:35:21.269Z,47.20
2023-01-29T08:35:53.836Z,66.80
2023-01-29T08:36:28.617Z,59.42
2023-01-29T08:37:00.885Z,71.05
2023-01-29T08:37:33.146Z,69.10
2023-01-29T08:38:08.357Z,45.60
2023-01-29T08:38:40.693Z,43.97
2023-01-29T08:39:12.955Z,58.67
2023-01-29T08:39:47.743Z,57.92
2023-01-29T08:40:20.248Z,37.67
2023-01-29T08:40:55.085Z,46.60
2023-01-29T08:41:27.166Z,50.90
2023-01-29T08:41:59.455Z,73.53
2023-01-29T08:42:34.589Z,54.70
2023-01-29T08:43:09.526Z,84.50
2023-01-29T08:43:44.534Z,79.70
2023-01-29T08:44:16.723Z,60.28
2023-01-29T08:44:51.527Z,55.80
2023-01-29T08:45:23.615Z,37.95
2023-01-29T08:45:58.551Z,51.28
2023-01-29T08:46:33.652Z,47.58
2023-01-29T08:47:05.895Z,50.88
2023-01-29T08:47:40.806Z,52.25
2023-01-29T08:48:13.096Z,63.90
2023-01-29T08:48:45.260Z,65.65
2023-01-29T08:49:19.966Z,58.22
2023-01-29T08:49:52.213Z,57.88
2023-01-29T08:50:27.260Z,55.42
2023-01-29T08:51:00.511Z,63.00
2023-01-29T08:51:35.286Z,71.00
2023-01-29T08:52:07.408Z,85.90
2023-01-29T08:52:39.664Z,76.97
2023-01-29T08:53:14.543Z,62.15
2023-01-29T08:53:50.667Z,65.85
2023-01-29T08:54:26.169Z,64.93
2023-01-29T08:54:58.393Z,53.00
2023-01-29T08:55:30.780Z,67.20
2023-01-29T08:56:05.593Z,78.07
2023-01-29T08:56:38.278Z,54.38
2023-01-29T08:57:13.300Z,77.32
2023-01-29T08:57:45.507Z,59.47
2023-01-29T08:58:17.919Z,49.65
2023-01-29T08:58:52.879Z,48.30
2023-01-29T08:59:24.977Z,54.38
2023-01-29T08:59:57.120Z,62.97
2023-01-29T09:00:31.834Z,62.70
2023-01-29T09:01:11.206Z,79.10
2023-01-29T09:01:46.010Z,67.55
2023-01-29T09:02:18.183Z,77.55
2023-01-29T09:02:50.389Z,70.85
2023-01-29T09:03:25.653Z,52.92
2023-01-29T09:03:57.956Z,50.42
2023-01-29T09:04:30.232Z,51.90
2023-01-29T09:05:05.464Z,61.97
2023-01-29T09:05:39.278Z,69.05
2023-01-29T09:06:12.940Z,65.45
2023-01-29T09:06:47.635Z,82.28
2023-01-29T09:07:21.866Z,76.72
2023-01-29T09:07:54.669Z,67.00
2023-01-29T09:08:29.564Z,63.15
2023-01-29T09:09:01.906Z,71.03
2023-01-29T09:09:34.052Z,62.90
2023-01-29T09:10:10.166Z,84.93
2023-01-29T09:10:42.455Z,84.35
2023-01-29T09:11:17.136Z,77.10
2023-01-29T09:11:49.256Z,79.30
2023-01-29T09:12:21.354Z,79.45
2023-01-29T09:12:56.209Z,79.80
2023-01-29T09:13:28.335Z,65.35
2023-01-29T09:14:03.046Z,77.72
2023-01-29T09:14:35.647Z,62.75
2023-01-29T09:15:09.276Z,62.08
2023-01-29T09:15:44.142Z,97.25
2023-01-29T09:16:18.943Z,74.78
2023-01-29T09:16:53.746Z,76.90
2023-01-29T09:17:25.947Z,126.50
2023-01-29T09:17:58.200Z,63.05
2023-01-29T09:18:33.847Z,89.03
2023-01-29T09:19:05.970Z,75.43
2023-01-29T09:19:40.665Z,63.95
2023-01-29T09:20:13.014Z,65.13
2023-01-29T09:20:45.253Z,84.15
2023-01-29T09:21:20.011Z,73.00
2023-01-29T09:21:52.116Z,63.08
2023-01-29T09:22:24.215Z,79.18
2023-01-29T09:22:59.268Z,67.93
2023-01-29T09:23:31.551Z,50.67
2023-01-29T09:24:06.777Z,60.70
2023-01-29T09:24:38.936Z,80.68
2023-01-29T09:25:11.201Z,75.80
2023-01-29T09:25:46.880Z,45.17
2023-01-29T09:26:19.019Z,58.90
2023-01-29T09:26:53.873Z,56.15
2023-01-29T09:27:25.975Z,65.75
2023-01-29T09:27:58.086Z,66.60
2023-01-29T09:28:33.178Z,65.35
2023-01-29T09:29:05.703Z,63.17
2023-01-29T09:29:40.497Z,59.25
2023-01-29T09:30:13.423Z,54.33
2023-01-29T09:30:46.246Z,65.20
2023-01-29T09:31:23.767Z,68.70
2023-01-29T09:31:56.041Z,65.50
2023-01-29T09:32:52.768Z,79.78
2023-01-29T09:33:26.256Z,63.13
2023-01-29T09:33:58.403Z,66.68
2023-01-29T09:34:30.572Z,66.15
2023-01-29T09:35:05.413Z,65.47
2023-01-29T09:35:37.526Z,63.55
2023-01-29T09:36:12.663Z,63.70
2023-01-29T09:36:45.038Z,69.53
2023-01-29T09:37:23.445Z,59.03
2023-01-29T09:37:55.786Z,86.95
2023-01-29T09:38:30.709Z,64.22
2023-01-29T09:39:02.855Z,66.45
2023-01-29T09:39:37.912Z,108.43
2023-01-29T09:40:18.551Z,75.55
2023-01-29T09:41:02.582Z,95.72
2023-01-29T09:41:49.506Z,66.22
2023-01-29T09:42:30.320Z,98.32
2023-01-29T09:43:06.929Z,70.50
2023-01-29T09:43:48.712Z,85.50
2023-01-29T09:44:28.778Z,93.38
2023-01-29T09:45:06.212Z,116.72
2023-01-29T09:45:44.979Z,63.15
2023-01-29T09:46:28.912Z,87.57
2023-01-29T09:47:07.847Z,81.40
2023-01-29T09:47:39.942Z,94.00
2023-01-29T09:48:15.785Z,61.70
2023-01-29T09:48:50.218Z,82.45
2023-01-29T09:49:29.157Z,76.65
2023-01-29T09:50:05.892Z,69.25
2023-01-29T09:50:41.586Z,68.28
2023-01-29T09:51:24.408Z,72.03
2023-01-29T09:52:02.172Z,91.55
2023-01-29T09:52:40.673Z,85.60
2023-01-29T09:53:18.528Z,91.47
2023-01-29T09:54:01.178Z,73.45
2023-01-29T09:54:41.243Z,108.90
2023-01-29T09:55:25.262Z,66.35
2023-01-29T09:56:03.111Z,119.70
2023-01-29T09:56:38.357Z,71.07
2023-01-29T09:57:17.953Z,86.50
2023-01-29T09:57:57.631Z,69.15
2023-01-29T09:58:34.320Z,130.38
2023-01-29T09:59:09.177Z,77.53
2023-01-29T09:59:41.524Z,80.05
2023-01-29T13:08:10.325Z,82.47
2023-01-29T13:08:46.646Z,89.35
2023-01-29T13:09:24.503Z,92.72
2023-01-29T13:10:07.161Z,104.93
2023-01-29T13:10:43.723Z,77.25
2023-01-29T13:11:24.661Z,80.50
2023-01-29T13:12:03.446Z,68.50
2023-01-29T13:12:37.530Z,92.95
2023-01-29T13:13:18.984Z,88.55
2023-01-29T13:13:55.499Z,129.18
2023-01-29T13:14:40.118Z,114.60
2023-01-29T13:15:22.339Z,89.80
2023-01-29T13:16:00.692Z,60.75
2023-01-29T13:16:38.563Z,104.50
2023-01-29T13:17:15.771Z,91.97
2023-01-29T13:17:54.675Z,118.72
2023-01-29T13:18:40.617Z,71.38
2023-01-29T13:19:24.956Z,95.13
2023-01-29T13:20:00.920Z,48.80
2023-01-29T13:20:38.120Z,88.38
2023-01-29T13:21:16.133Z,48.78
2023-01-29T13:21:51.579Z,43.53
2023-01-29T13:22:26.242Z,71.35
2023-01-29T13:23:08.867Z,54.20
2023-01-29T13:23:44.951Z,77.10
2023-01-29T13:24:23.000Z,69.30
2023-01-29T13:25:04.608Z,70.50
2023-01-29T13:25:40.857Z,76.60
2023-01-29T13:26:14.141Z,108.82
2023-01-29T13:26:47.448Z,89.70
2023-01-29T13:27:27.904Z,87.60
2023-01-29T13:28:00.883Z,81.80
2023-01-29T13:28:35.720Z,103.53
2023-01-29T13:29:20.550Z,76.95
2023-01-29T13:29:56.076Z,80.63
2023-01-29T13:30:30.605Z,91.55
2023-01-29T13:31:21.295Z,95.47
2023-01-29T13:32:30.747Z,56.17
2023-01-29T13:33:09.915Z,57.13
2023-01-29T13:33:54.315Z,62.35
2023-01-29T13:34:29.317Z,61.85
2023-01-29T13:35:07.651Z,42.88
2023-01-29T13:35:42.264Z,72.43
2023-01-29T13:36:19.711Z,55.58
2023-01-29T13:36:57.362Z,44.25
2023-01-29T13:37:32.664Z,48.33
2023-01-29T13:38:26.705Z,58.05
2023-01-29T13:39:03.915Z,59.47
2023-01-29T13:39:44.682Z,73.00
2023-01-29T13:40:24.372Z,60.20
2023-01-29T13:41:03.981Z,48.28
2023-01-29T13:41:39.557Z,49.28
2023-01-29T13:42:21.574Z,58.15
2023-01-29T13:42:55.204Z,71.20
2023-01-29T13:43:31.480Z,77.63
2023-01-29T13:44:09.471Z,74.15
2023-01-29T13:44:41.763Z,58.95
2023-01-29T13:45:24.021Z,57.53
2023-01-29T13:45:56.393Z,59.33
2023-01-29T13:46:30.051Z,76.20
2023-01-29T13:47:06.646Z,99.68
2023-01-29T13:47:40.255Z,70.72
2023-01-29T13:48:26.712Z,68.97
2023-01-29T13:49:01.456Z,86.63
2023-01-29T13:49:40.413Z,103.32